Time;durP1;ratioP1;P1;durP2;ratioP2;P2;SDS_P1;SDS_P2;PMS_P1;PMS_P2;Temp;Humidity;BMP_temperature;BMP_pressure;BME280_temperature;BME280_humidity;BME280_pressure;Samples;Min_cycle;Max_cycle;Signal;HPM_P1;HPM_P2
2022/10/13 00:01:23;;;;;;;23.27;10.90;;;8.00;99.90;;;;;;6249962;22;20016;-84
2022/10/13 00:03:49;;;;;;;19.63;10.68;;;8.00;99.90;;;;;;6276938;22;20149;-84
2022/10/13 00:06:20;;;;;;;21.70;10.20;;;8.00;99.90;;;;;;6277840;22;20016;-84
2022/10/13 00:08:46;;;;;;;21.70;11.27;;;7.90;99.90;;;;;;6279139;22;20076;-84
2022/10/13 00:11:18;;;;;;;22.75;10.75;;;8.50;99.90;;;;;;6249896;22;20030;-84
2022/10/13 00:13:45;;;;;;;22.55;10.57;;;8.30;99.90;;;;;;6250845;22;20055;-84
2022/10/13 00:16:13;;;;;;;20.80;11.27;;;7.90;99.90;;;;;;6249880;22;20073;-84
2022/10/13 00:18:39;;;;;;;26.92;11.23;;;7.90;99.90;;;;;;6249487;22;20019;-84
2022/10/13 00:21:07;;;;;;;21.60;10.90;;;8.50;99.90;;;;;;6250154;22;20018;-84
2022/10/13 00:23:34;;;;;;;22.52;11.20;;;7.80;99.90;;;;;;6276778;22;20432;-84
2022/10/13 00:26:03;;;;;;;26.13;11.57;;;7.80;99.90;;;;;;6250069;22;20022;-84
2022/10/13 00:28:29;;;;;;;21.88;11.27;;;7.80;99.90;;;;;;6249704;22;20020;-84
2022/10/13 00:30:55;;;;;;;22.08;11.38;;;7.80;99.90;;;;;;6275934;22;20020;-84
2022/10/13 00:33:20;;;;;;;21.87;11.30;;;7.70;99.90;;;;;;6249636;22;20089;-84
2022/10/13 00:38:12;;;;;;;22.33;11.83;;;7.70;99.90;;;;;;6272857;22;20011;-84
2022/10/13 00:40:50;;;;;;;21.23;11.00;;;7.50;99.90;;;;;;6276825;22;20073;-84
2022/10/13 00:43:24;;;;;;;21.40;11.33;;;7.80;99.90;;;;;;6249567;22;20011;-84
2022/10/13 00:45:51;;;;;;;23.67;10.93;;;7.80;99.90;;;;;;6248984;22;20027;-84
2022/10/13 00:48:23;;;;;;;21.90;11.03;;;7.80;99.90;;;;;;6276515;22;20325;-84
2022/10/13 00:50:50;;;;;;;22.97;10.97;;;7.80;99.90;;;;;;6250047;22;20011;-84
2022/10/13 00:53:18;;;;;;;23.13;11.33;;;7.80;99.90;;;;;;6248492;22;20019;-84
2022/10/13 00:55:46;;;;;;;21.23;11.40;;;7.90;99.90;;;;;;6249567;22;20466;-84
2022/10/13 00:58:15;;;;;;;22.52;11.60;;;7.90;99.90;;;;;;6249394;22;20039;-84
2022/10/13 01:00:45;;;;;;;22.40;10.50;;;7.90;99.90;;;;;;6248606;22;20012;-84
2022/10/13 01:03:11;;;;;;;20.55;10.50;;;7.90;99.90;;;;;;6276832;22;20016;-84
2022/10/13 01:05:39;;;;;;;21.20;11.68;;;7.90;99.90;;;;;;6276771;22;20016;-84
2022/10/13 01:08:05;;;;;;;20.33;11.18;;;8.00;99.90;;;;;;6277428;22;20038;-84
2022/10/13 01:10:49;;;;;;;20.38;11.05;;;8.00;99.90;;;;;;6275929;22;20015;-84
2022/10/13 01:13:17;;;;;;;23.40;11.48;;;8.00;99.90;;;;;;6275901;22;20023;-84
2022/10/13 01:16:03;;;;;;;20.90;11.50;;;9.00;99.90;;;;;;6249689;22;20045;-84
2022/10/13 01:18:39;;;;;;;25.20;11.70;;;8.10;99.90;;;;;;6249283;22;20047;-84
2022/10/13 01:21:25;;;;;;;21.70;11.23;;;8.10;99.90;;;;;;6249214;22;20019;-84
2022/10/13 01:24:05;;;;;;;19.15;10.27;;;8.10;99.90;;;;;;6280980;22;20030;-84
2022/10/13 01:26:36;;;;;;;20.55;11.18;;;8.10;99.90;;;;;;6250407;22;20026;-84
2022/10/13 01:29:31;;;;;;;22.23;11.23;;;8.10;99.90;;;;;;6248727;22;20043;-84
2022/10/13 01:32:06;;;;;;;20.90;10.38;;;8.10;99.90;;;;;;6276187;22;20459;-84
2022/10/13 01:34:41;;;;;;;24.23;11.23;;;8.00;99.90;;;;;;6248621;22;20378;-84
2022/10/13 01:37:19;;;;;;;21.70;11.68;;;8.00;99.90;;;;;;6276464;22;20114;-84
2022/10/13 01:40:14;;;;;;;20.52;11.05;;;7.90;99.90;;;;;;6276861;22;20062;-84
2022/10/13 01:42:49;;;;;;;22.65;11.60;;;7.90;99.90;;;;;;6247790;22;20472;-84
2022/10/13 01:45:19;;;;;;;21.73;11.32;;;7.90;99.90;;;;;;6249025;22;20008;-84
2022/10/13 01:47:46;;;;;;;23.40;11.63;;;7.80;99.90;;;;;;6276644;22;20016;-84
2022/10/13 01:50:14;;;;;;;20.02;10.60;;;7.80;99.90;;;;;;6275409;22;20069;-84
2022/10/13 01:52:41;;;;;;;21.23;11.32;;;7.80;99.90;;;;;;6276582;22;20016;-84
2022/10/13 01:57:43;;;;;;;21.30;11.10;;;7.80;99.90;;;;;;6274999;22;20026;-84
2022/10/13 02:00:13;;;;;;;26.85;11.50;;;7.60;99.90;;;;;;6276178;22;20065;-84
2022/10/13 02:03:00;;;;;;;22.17;10.32;;;7.90;99.90;;;;;;6248007;22;20016;-84
2022/10/13 02:05:51;;;;;;;22.10;10.98;;;7.90;99.90;;;;;;6247994;22;20098;-84
2022/10/13 02:08:38;;;;;;;24.80;11.87;;;7.90;99.90;;;;;;6248658;22;20015;-84
2022/10/13 02:11:13;;;;;;;24.00;11.73;;;7.90;99.90;;;;;;6275937;22;20016;-84
2022/10/13 02:13:51;;;;;;;22.03;11.47;;;7.90;99.90;;;;;;6249232;22;20529;-84
2022/10/13 02:16:19;;;;;;;21.37;11.70;;;7.90;99.90;;;;;;6247752;22;20730;-84
2022/10/13 02:18:49;;;;;;;25.37;12.37;;;8.00;99.90;;;;;;6249532;22;20079;-84
2022/10/13 02:21:15;;;;;;;26.03;12.07;;;7.90;99.90;;;;;;6276017;22;20090;-84
2022/10/13 02:23:42;;;;;;;20.88;11.30;;;8.00;99.90;;;;;;6247986;22;20444;-84
2022/10/13 02:26:08;;;;;;;23.73;11.43;;;8.00;99.90;;;;;;6275635;22;20440;-84
2022/10/13 02:28:36;;;;;;;25.90;11.55;;;8.00;99.90;;;;;;6249024;22;20015;-84
2022/10/13 02:31:04;;;;;;;21.80;11.60;;;8.00;99.90;;;;;;6247721;22;20011;-84
2022/10/13 02:33:29;;;;;;;24.23;11.90;;;8.00;99.90;;;;;;6275648;22;20016;-84
2022/10/13 02:35:55;;;;;;;20.27;11.10;;;9.10;99.90;;;;;;6248848;22;20011;-84
2022/10/13 02:38:24;;;;;;;21.13;11.55;;;8.00;99.90;;;;;;6274739;22;20058;-84
2022/10/13 02:40:49;;;;;;;21.27;11.73;;;8.00;99.90;;;;;;6249289;22;20442;-84
2022/10/13 02:43:16;;;;;;;22.13;11.23;;;7.90;99.90;;;;;;6276021;22;20016;-84
2022/10/13 02:45:42;;;;;;;26.83;12.52;;;7.90;99.90;;;;;;6247993;22;20017;-84
2022/10/13 02:48:08;;;;;;;22.02;11.45;;;7.90;99.90;;;;;;6248098;22;20020;-84
2022/10/13 02:50:34;;;;;;;28.48;12.75;;;7.90;99.90;;;;;;6276223;22;20008;-84
2022/10/13 02:52:59;;;;;;;21.80;12.10;;;7.90;99.90;;;;;;6275305;22;20370;-85
2022/10/13 02:55:25;;;;;;;26.27;12.60;;;7.90;99.90;;;;;;6248203;22;20541;-84
2022/10/13 02:58:03;;;;;;;28.30;13.20;;;8.00;99.90;;;;;;6229719;23;20016;-84
2022/10/13 03:00:42;;;;;;;29.38;12.68;;;7.90;99.90;;;;;;6216952;23;20016;-84
2022/10/13 03:03:20;;;;;;;23.85;12.05;;;8.00;99.90;;;;;;6218050;23;20094;-84
2022/10/13 03:06:01;;;;;;;22.07;11.47;;;7.80;99.90;;;;;;6244184;23;20471;-84
2022/10/13 03:08:42;;;;;;;24.42;11.98;;;9.10;99.90;;;;;;6241109;22;20094;-84
2022/10/13 03:11:33;;;;;;;21.95;11.93;;;7.70;99.90;;;;;;6248108;22;20019;-84
2022/10/13 03:13:59;;;;;;;25.65;12.75;;;8.10;99.90;;;;;;6247600;22;20456;-84
2022/10/13 03:16:24;;;;;;;25.67;12.35;;;8.10;99.90;;;;;;6275593;22;20018;-84
2022/10/13 03:18:50;;;;;;;25.15;12.43;;;8.10;99.90;;;;;;6248686;22;20102;-84
2022/10/13 03:21:16;;;;;;;27.98;12.55;;;8.10;99.90;;;;;;6247250;22;20091;-84
2022/10/13 03:23:41;;;;;;;22.38;12.15;;;9.50;99.90;;;;;;6275949;22;20012;-84
2022/10/13 03:26:14;;;;;;;24.10;11.80;;;8.10;99.90;;;;;;6241708;22;20374;-84
2022/10/13 03:28:40;;;;;;;26.67;13.75;;;8.70;99.90;;;;;;6244607;22;20027;-84
2022/10/13 03:31:11;;;;;;;24.77;12.65;;;8.00;99.90;;;;;;6244992;23;20012;-84
2022/10/13 03:33:55;;;;;;;20.10;11.55;;;8.20;99.90;;;;;;6242851;23;20066;-84
2022/10/13 03:36:21;;;;;;;25.88;12.38;;;8.40;99.90;;;;;;6245033;23;20070;-85
2022/10/13 03:38:56;;;;;;;36.40;12.40;;;8.00;99.90;;;;;;6245481;23;20446;-84
2022/10/13 03:41:33;;;;;;;23.30;12.05;;;8.10;99.90;;;;;;6244069;23;20367;-84
2022/10/13 03:44:00;;;;;;;22.67;12.27;;;8.90;99.90;;;;;;6245519;23;20016;-84
2022/10/13 03:46:28;;;;;;;25.33;11.63;;;8.70;99.90;;;;;;6244877;22;20122;-84
2022/10/13 03:49:06;;;;;;;23.77;12.25;;;8.40;99.90;;;;;;6244750;22;20020;-84
2022/10/13 03:51:32;;;;;;;24.17;12.63;;;8.40;99.90;;;;;;6243537;23;20103;-84
2022/10/13 03:53:57;;;;;;;22.75;12.55;;;8.50;99.90;;;;;;6245304;23;20202;-85
2022/10/13 03:56:26;;;;;;;23.67;12.40;;;9.10;99.90;;;;;;6242232;23;20014;-84
2022/10/13 03:58:57;;;;;;;22.52;12.13;;;8.50;99.90;;;;;;6243374;23;20031;-84
2022/10/13 04:01:25;;;;;;;24.33;12.02;;;8.50;99.90;;;;;;6244179;22;20091;-84
2022/10/13 04:03:54;;;;;;;22.40;12.65;;;8.50;99.90;;;;;;6244318;22;20016;-84
2022/10/13 04:06:21;;;;;;;24.27;12.82;;;8.60;99.90;;;;;;6243268;23;20321;-84
2022/10/13 04:08:47;;;;;;;26.50;12.57;;;8.60;99.90;;;;;;6243861;23;20027;-84
2022/10/13 04:11:15;;;;;;;25.67;13.10;;;8.60;99.90;;;;;;6246793;22;20076;-84
2022/10/13 04:13:41;;;;;;;26.73;14.05;;;8.60;99.90;;;;;;6246716;22;20023;-85
2022/10/13 04:16:14;;;;;;;28.98;13.30;;;8.60;99.90;;;;;;6243771;23;20049;-84
2022/10/13 04:18:39;;;;;;;25.10;12.83;;;8.60;99.90;;;;;;6245316;23;20020;-84
2022/10/13 04:21:25;;;;;;;26.10;12.60;;;8.60;99.90;;;;;;6246932;23;20024;-85
2022/10/13 04:23:52;;;;;;;27.63;13.50;;;8.60;99.90;;;;;;6244329;23;20019;-84
2022/10/13 04:26:22;;;;;;;25.38;12.90;;;8.60;99.90;;;;;;6253963;22;20016;-85
2022/10/13 04:28:50;;;;;;;22.75;12.07;;;8.60;99.90;;;;;;6250159;22;20016;-85
2022/10/13 04:31:16;;;;;;;25.63;13.60;;;8.70;99.90;;;;;;6246740;22;20019;-84
2022/10/13 04:33:43;;;;;;;28.15;13.57;;;8.60;99.90;;;;;;6250147;22;20025;-84
2022/10/13 04:36:11;;;;;;;26.42;12.85;;;8.90;99.90;;;;;;6276511;22;20018;-84
2022/10/13 04:38:37;;;;;;;26.13;13.82;;;8.60;99.90;;;;;;6276521;22;20012;-85
2022/10/13 04:41:04;;;;;;;34.17;16.10;;;8.60;99.90;;;;;;6277321;22;20022;-85
2022/10/13 04:43:30;;;;;;;31.55;14.48;;;8.70;99.90;;;;;;6276994;22;20394;-85
2022/10/13 04:46:01;;;;;;;25.63;14.18;;;8.70;99.90;;;;;;6276117;22;20018;-84
2022/10/13 04:48:27;;;;;;;32.17;14.88;;;8.70;99.90;;;;;;6249423;22;20047;-84
2022/10/13 04:51:05;;;;;;;26.23;13.95;;;8.70;99.90;;;;;;6234319;23;20337;31
2022/10/13 04:53:31;;;;;;;28.27;14.90;;;8.70;99.90;;;;;;6155872;23;20064;-85
2022/10/13 04:56:03;;;;;;;25.60;13.80;;;8.80;99.90;;;;;;6129788;23;20501;-85
2022/10/13 04:58:29;;;;;;;29.17;14.65;;;8.80;99.90;;;;;;6154912;23;20032;-85
2022/10/13 05:00:54;;;;;;;26.83;14.35;;;8.80;99.90;;;;;;6129471;23;20442;-84
2022/10/13 05:03:23;;;;;;;32.55;15.57;;;8.90;99.90;;;;;;6129439;23;20072;-85
2022/10/13 05:05:48;;;;;;;24.33;14.80;;;8.90;99.90;;;;;;6154618;23;20040;-84
2022/10/13 05:08:14;;;;;;;26.65;16.00;;;9.70;99.90;;;;;;6129647;23;20438;-85
2022/10/13 05:10:39;;;;;;;29.58;16.23;;;8.90;99.90;;;;;;6130045;23;20435;-84
2022/10/13 05:13:06;;;;;;;27.55;13.00;;;9.00;99.90;;;;;;6155495;23;20024;-85
2022/10/13 05:15:37;;;;;;;31.17;12.60;;;9.00;99.90;;;;;;6159544;23;20026;-85
2022/10/13 05:18:03;;;;;;;24.95;12.00;;;9.00;99.90;;;;;;6131696;23;20017;-85
2022/10/13 05:20:29;;;;;;;25.13;11.98;;;9.80;99.90;;;;;;6130150;23;20018;-84
2022/10/13 05:22:55;;;;;;;27.30;12.35;;;9.10;99.90;;;;;;6129772;23;20410;-85
2022/10/13 05:25:21;;;;;;;25.38;12.05;;;9.10;99.90;;;;;;6129702;23;20017;-85
2022/10/13 05:27:47;;;;;;;22.40;11.30;;;9.10;99.90;;;;;;6129082;23;20092;-85
2022/10/13 05:30:12;;;;;;;25.75;12.07;;;9.30;99.90;;;;;;6129842;23;20102;-85
2022/10/13 05:32:38;;;;;;;19.45;10.77;;;9.20;99.90;;;;;;6129716;23;20073;-84
2022/10/13 05:35:04;;;;;;;21.48;11.45;;;9.60;99.90;;;;;;6155059;23;20021;-85
2022/10/13 05:37:30;;;;;;;25.13;11.60;;;9.10;99.90;;;;;;6129186;23;20447;-92
2022/10/13 05:39:55;;;;;;;21.10;10.95;;;9.60;99.90;;;;;;6155929;23;20092;-88
2022/10/13 05:42:21;;;;;;;24.75;11.75;;;9.10;99.90;;;;;;6129266;23;20031;-83
2022/10/13 05:44:47;;;;;;;22.25;12.38;;;9.10;99.90;;;;;;6129750;23;20438;-82
2022/10/13 05:47:12;;;;;;;23.17;11.85;;;9.80;99.90;;;;;;6128422;23;20068;-82
2022/10/13 05:49:38;;;;;;;25.02;12.73;;;9.10;99.90;;;;;;6155633;23;20017;-83
2022/10/13 05:52:09;;;;;;;26.75;12.95;;;9.80;99.90;;;;;;6138767;23;20017;-82
2022/10/13 05:54:45;;;;;;;26.17;12.40;;;9.10;99.90;;;;;;6155472;23;20032;-83
2022/10/13 05:57:23;;;;;;;25.25;12.43;;;9.10;99.90;;;;;;6153487;23;20353;-82
2022/10/13 05:59:53;;;;;;;27.13;12.98;;;9.10;99.90;;;;;;6155897;23;20013;-82
2022/10/13 06:02:22;;;;;;;22.98;11.88;;;9.00;99.90;;;;;;6151912;23;20017;-82
2022/10/13 06:04:51;;;;;;;27.38;12.93;;;9.00;99.90;;;;;;6154577;23;20084;-83
2022/10/13 06:07:17;;;;;;;23.50;12.70;;;9.10;99.90;;;;;;6152563;23;20024;-82
2022/10/13 06:09:43;;;;;;;28.15;12.93;;;9.10;99.90;;;;;;6153674;23;20097;-83
2022/10/13 06:12:09;;;;;;;22.15;12.45;;;9.80;99.90;;;;;;6151497;23;20018;-83
2022/10/13 06:14:35;;;;;;;24.52;11.70;;;9.00;99.90;;;;;;6151977;23;20534;-83
2022/10/13 06:17:01;;;;;;;24.92;11.10;;;9.00;99.90;;;;;;6149153;23;20021;-84
2022/10/13 06:19:26;;;;;;;23.23;11.80;;;9.00;99.90;;;;;;6153060;23;20021;-82
2022/10/13 06:21:52;;;;;;;27.17;12.60;;;9.00;99.90;;;;;;6154160;23;20018;-82
2022/10/13 06:24:18;;;;;;;25.07;11.77;;;10.20;99.90;;;;;;6149575;23;20085;-82
2022/10/13 06:26:43;;;;;;;24.60;12.20;;;9.00;99.90;;;;;;6153732;23;20018;-83
2022/10/13 06:29:12;;;;;;;23.27;12.03;;;9.90;99.90;;;;;;6152687;23;20465;-83
2022/10/13 06:31:50;;;;;;;29.90;13.10;;;9.70;99.90;;;;;;6154184;23;20014;-84
2022/10/13 06:41:48;;;;;;;21.65;11.90;;;9.20;99.90;;;;;;6155001;23;20020;-83
2022/10/13 06:44:23;;;;;;;24.85;12.38;;;9.40;99.90;;;;;;6151978;23;20318;-84
2022/10/13 06:46:52;;;;;;;25.63;12.98;;;10.10;99.90;;;;;;6152623;23;20021;-84
2022/10/13 06:49:24;;;;;;;22.15;12.18;;;9.10;99.90;;;;;;6154855;23;20009;-83
2022/10/13 06:51:50;;;;;;;25.67;12.95;;;9.30;99.90;;;;;;6151914;23;20093;-83
2022/10/13 06:54:15;;;;;;;25.38;13.50;;;9.40;99.90;;;;;;6152723;23;20702;-82
2022/10/13 06:56:41;;;;;;;24.83;13.90;;;9.40;99.90;;;;;;6153263;23;20465;-83
2022/10/13 06:59:07;;;;;;;29.98;13.43;;;9.50;99.90;;;;;;6151722;23;20022;-83
2022/10/13 07:01:33;;;;;;;24.95;13.05;;;9.60;99.90;;;;;;6153084;23;20020;-84
2022/10/13 07:03:58;;;;;;;28.85;15.35;;;9.50;99.90;;;;;;6153346;23;20019;-83
2022/10/13 07:06:24;;;;;;;28.92;14.10;;;9.70;99.90;;;;;;6151468;23;20605;-82
2022/10/13 07:08:49;;;;;;;31.02;15.30;;;9.80;99.90;;;;;;6152851;23;20019;-82
2022/10/13 07:11:17;;;;;;;25.88;14.00;;;9.90;99.90;;;;;;6152071;23;20022;-83
2022/10/13 07:13:43;;;;;;;28.38;15.35;;;10.00;99.90;;;;;;6154168;23;20049;-82
2022/10/13 07:16:09;;;;;;;30.73;15.88;;;10.10;99.90;;;;;;6151328;23;20014;-82
2022/10/13 07:18:35;;;;;;;27.42;14.05;;;10.20;99.90;;;;;;6152460;23;20461;-82
2022/10/13 07:21:01;;;;;;;24.85;13.95;;;10.30;99.90;;;;;;6155158;23;20437;-82
2022/10/13 07:23:28;;;;;;;27.00;13.60;;;10.40;99.90;;;;;;6154840;23;20048;-82
2022/10/13 07:25:56;;;;;;;26.00;14.30;;;10.40;99.90;;;;;;6152397;23;20020;-82
2022/10/13 07:28:23;;;;;;;26.27;14.23;;;10.50;99.90;;;;;;6152888;23;20065;-82
2022/10/13 07:30:49;;;;;;;27.90;13.98;;;10.60;99.90;;;;;;6153302;23;20045;-82
2022/10/13 07:33:14;;;;;;;46.55;28.05;;;12.00;99.90;;;;;;6152029;23;20441;-82
2022/10/13 07:35:40;;;;;;;28.80;14.75;;;10.70;99.90;;;;;;6155038;23;20022;-82
2022/10/13 07:38:07;;;;;;;30.23;16.00;;;10.80;99.90;;;;;;6154388;23;20461;-82
2022/10/13 07:40:33;;;;;;;28.30;16.48;;;10.80;99.90;;;;;;6153816;23;20469;-82
2022/10/13 07:43:02;;;;;;;30.02;14.95;;;10.90;99.90;;;;;;6154963;23;20018;-82
2022/10/13 07:45:27;;;;;;;25.73;14.20;;;11.00;99.90;;;;;;6156064;23;20084;-82
2022/10/13 07:47:53;;;;;;;27.30;14.57;;;11.00;99.90;;;;;;6154102;23;20438;-82
2022/10/13 07:50:19;;;;;;;28.13;15.00;;;12.40;99.90;;;;;;6156363;23;20040;-82
2022/10/13 07:52:44;;;;;;;26.90;14.55;;;11.10;99.90;;;;;;6154821;23;20031;-82
2022/10/13 07:55:10;;;;;;;28.00;13.15;;;11.20;99.90;;;;;;6155467;23;20096;-82
2022/10/13 07:57:36;;;;;;;27.52;14.13;;;11.30;99.90;;;;;;6154757;23;20021;-82
2022/10/13 08:00:06;;;;;;;27.45;14.27;;;11.30;99.90;;;;;;6155045;23;20092;-82
2022/10/13 08:02:31;;;;;;;27.08;14.60;;;11.40;99.90;;;;;;6155418;23;20462;-82
2022/10/13 08:04:57;;;;;;;27.65;13.90;;;11.50;99.90;;;;;;6154766;23;20025;-82
2022/10/13 08:07:23;;;;;;;26.88;13.88;;;11.60;99.90;;;;;;6154780;23;20032;-83
2022/10/13 08:09:49;;;;;;;27.95;13.50;;;11.70;99.90;;;;;;6155045;23;20056;-82
2022/10/13 08:12:14;;;;;;;25.15;14.15;;;11.80;99.90;;;;;;6153748;23;20028;-83
2022/10/13 08:14:40;;;;;;;25.55;14.07;;;11.90;99.90;;;;;;6154908;23;20023;-83
2022/10/13 08:17:06;;;;;;;24.60;13.07;;;12.00;99.90;;;;;;6155513;23;20389;-83
2022/10/13 08:19:32;;;;;;;27.02;14.80;;;12.00;99.90;;;;;;6154371;23;20017;-83
2022/10/13 08:21:57;;;;;;;27.08;14.68;;;12.00;99.90;;;;;;6153436;23;20048;-83
2022/10/13 08:24:23;;;;;;;25.42;13.38;;;12.30;99.90;;;;;;6154529;23;20096;-83
2022/10/13 08:26:49;;;;;;;30.92;14.23;;;13.10;99.90;;;;;;6155265;23;20024;-83
2022/10/13 08:29:15;;;;;;;25.85;13.85;;;12.00;99.90;;;;;;6155061;23;20045;-83
2022/10/13 08:31:47;;;;;;;26.45;13.75;;;12.10;99.90;;;;;;6156110;23;20014;-83
2022/10/13 08:34:12;;;;;;;28.58;14.25;;;12.20;99.90;;;;;;6155649;23;20026;-84
2022/10/13 08:36:46;;;;;;;29.48;14.88;;;12.30;99.90;;;;;;6155527;23;20056;-84
2022/10/13 08:42:42;;;;;;;24.83;13.00;;;12.50;99.90;;;;;;6153911;23;20466;-84
2022/10/13 08:45:18;;;;;;;27.08;13.45;;;12.60;99.90;;;;;;6155422;23;20017;-84
2022/10/13 08:47:54;;;;;;;26.75;13.05;;;12.60;99.90;;;;;;6156455;23;20021;-83
2022/10/13 08:50:32;;;;;;;26.23;13.23;;;12.60;99.90;;;;;;6155228;23;20069;-84
2022/10/13 08:53:06;;;;;;;24.30;12.80;;;13.90;99.90;;;;;;6154118;23;20021;-84
2022/10/13 08:55:49;;;;;;;21.80;12.48;;;13.90;99.90;;;;;;6154521;23;20010;-84
2022/10/13 08:58:27;;;;;;;23.33;13.48;;;12.50;99.90;;;;;;6155019;23;20025;-84
2022/10/13 09:01:28;;;;;;;26.30;13.38;;;12.40;99.90;;;;;;6155632;23;20021;-84
2022/10/13 09:04:22;;;;;;;24.05;13.30;;;12.40;99.90;;;;;;6154364;23;20397;-84
2022/10/13 09:07:01;;;;;;;26.83;12.93;;;12.50;99.90;;;;;;6154079;23;20338;-84
2022/10/13 09:09:29;;;;;;;25.08;12.80;;;12.60;99.90;;;;;;6155809;23;20021;-84
2022/10/13 09:11:56;;;;;;;25.17;13.15;;;12.60;99.90;;;;;;6155225;23;20017;-84
2022/10/13 09:14:32;;;;;;;25.60;14.23;;;12.60;99.90;;;;;;6155843;23;20385;-83
2022/10/13 09:17:22;;;;;;;27.00;13.25;;;12.60;99.90;;;;;;6156159;23;20010;-83
2022/10/13 09:20:26;;;;;;;25.30;14.25;;;12.60;99.90;;;;;;6153342;23;20028;-83
2022/10/13 09:23:15;;;;;;;26.92;13.52;;;12.60;99.90;;;;;;6154307;23;20076;-83
2022/10/13 09:25:43;;;;;;;27.05;13.50;;;13.50;99.90;;;;;;6153270;23;20080;-83
2022/10/13 09:28:25;;;;;;;27.73;13.32;;;12.70;99.90;;;;;;6155116;23;20096;-83
2022/10/13 09:31:02;;;;;;;26.55;13.38;;;12.80;99.90;;;;;;6154354;23;20013;-83
2022/10/13 09:33:28;;;;;;;26.92;13.27;;;12.90;99.90;;;;;;6154855;23;20020;-83
2022/10/13 09:36:00;;;;;;;22.83;12.25;;;13.00;99.90;;;;;;6154165;23;20014;-85
2022/10/13 09:38:26;;;;;;;26.70;13.65;;;14.20;99.90;;;;;;6153485;23;20036;-83
2022/10/13 09:41:14;;;;;;;29.60;13.75;;;13.90;99.90;;;;;;6154961;23;20045;-84
2022/10/13 09:44:06;;;;;;;25.33;12.90;;;13.30;99.90;;;;;;6155035;23;20018;-84
2022/10/13 09:46:36;;;;;;;24.38;13.13;;;13.30;99.90;;;;;;6153352;23;20100;-84
2022/10/13 09:49:24;;;;;;;26.55;12.85;;;14.70;99.90;;;;;;6154184;23;20021;-85
2022/10/13 09:51:50;;;;;;;25.20;12.85;;;13.50;99.90;;;;;;6166710;23;20091;-85
2022/10/13 09:54:34;;;;;;;21.77;12.98;;;13.50;99.90;;;;;;6182611;23;20479;-85
2022/10/13 09:57:15;;;;;;;25.30;13.07;;;13.70;99.90;;;;;;6158671;23;20024;-85
2022/10/13 10:00:00;;;;;;;25.70;13.50;;;13.80;99.90;;;;;;6159361;23;20025;-85
2022/10/13 10:02:47;;;;;;;24.58;13.20;;;14.00;99.90;;;;;;6157610;23;20025;-85
2022/10/13 10:05:42;;;;;;;22.98;13.07;;;14.20;99.90;;;;;;6157933;23;20017;-85
2022/10/13 10:08:29;;;;;;;24.10;13.82;;;14.40;99.90;;;;;;6119967;23;20031;-85
2022/10/13 10:10:55;;;;;;;23.42;12.27;;;14.50;99.90;;;;;;6185354;23;20053;-86
2022/10/13 10:13:23;;;;;;;24.65;13.32;;;15.20;99.90;;;;;;6184972;23;20052;-85
2022/10/13 10:16:01;;;;;;;21.35;12.38;;;14.70;99.90;;;;;;6158064;23;20048;-85
2022/10/13 10:18:37;;;;;;;23.95;12.98;;;14.70;99.90;;;;;;6158441;23;20064;-85
2022/10/13 10:21:32;;;;;;;25.65;13.55;;;15.30;99.90;;;;;;6159540;23;20476;-85
2022/10/13 10:24:16;;;;;;;25.13;13.93;;;14.60;99.90;;;;;;6155720;23;20116;-85
2022/10/13 10:27:05;;;;;;;25.85;14.10;;;14.70;99.90;;;;;;6185358;23;20020;-85
2022/10/13 10:29:57;;;;;;;20.40;13.68;;;14.60;99.90;;;;;;6184209;23;20020;-85
2022/10/13 10:32:43;;;;;;;26.40;14.35;;;14.60;99.90;;;;;;6184312;23;20021;-85
2022/10/13 10:35:14;;;;;;;24.10;14.75;;;15.10;99.90;;;;;;6181513;23;20045;-84
2022/10/13 10:37:58;;;;;;;24.15;14.48;;;14.60;99.90;;;;;;6184474;23;20446;-85
2022/10/13 10:40:33;;;;;;;25.38;14.93;;;14.60;99.90;;;;;;6184508;23;20159;-85
2022/10/13 10:43:22;;;;;;;24.52;15.05;;;14.50;99.90;;;;;;6184080;23;20080;-84
2022/10/13 10:45:54;;;;;;;29.50;16.00;;;14.60;99.90;;;;;;6183870;23;20032;-84
2022/10/13 10:48:24;;;;;;;26.92;16.30;;;14.70;99.90;;;;;;6184256;23;20017;-84
2022/10/13 10:50:52;;;;;;;26.73;16.23;;;14.90;99.90;;;;;;6183767;23;20024;-84
2022/10/13 10:53:36;;;;;;;28.70;16.45;;;15.70;99.90;;;;;;6157855;23;20021;-84
2022/10/13 10:56:30;;;;;;;25.20;15.75;;;14.90;99.90;;;;;;6158920;23;20021;-84
2022/10/13 10:59:08;;;;;;;24.35;15.68;;;14.90;99.90;;;;;;6185304;23;20009;-84
2022/10/13 11:01:57;;;;;;;24.13;15.95;;;15.00;99.90;;;;;;6158292;23;20025;-86
2022/10/13 11:04:40;;;;;;;24.45;15.25;;;14.90;99.90;;;;;;6156986;23;20107;-84
2022/10/13 11:07:23;;;;;;;26.17;15.13;;;14.90;99.90;;;;;;6158110;23;20021;-85
2022/10/13 11:09:49;;;;;;;25.98;15.45;;;14.90;99.90;;;;;;6185174;23;20028;-84
2022/10/13 11:12:18;;;;;;;30.00;15.27;;;15.50;99.90;;;;;;6157277;23;20025;-85
2022/10/13 11:14:54;;;;;;;24.27;15.43;;;14.70;99.90;;;;;;6185267;23;20021;-86
2022/10/13 11:17:33;;;;;;;24.65;14.88;;;14.60;99.90;;;;;;6185957;23;20341;-86
2022/10/13 11:19:59;;;;;;;26.95;15.98;;;14.60;99.90;;;;;;6186739;23;20382;-86
2022/10/13 11:22:26;;;;;;;24.80;16.00;;;14.60;99.90;;;;;;6186438;23;20017;-85
2022/10/13 11:24:56;;;;;;;28.77;17.23;;;15.20;99.90;;;;;;6186000;23;20017;-86
2022/10/13 11:27:26;;;;;;;26.70;16.13;;;14.50;99.90;;;;;;6160192;23;20084;-86
2022/10/13 11:29:59;;;;;;;29.33;17.35;;;14.40;99.90;;;;;;6198992;22;20102;-86
2022/10/13 11:35:00;;;;;;;28.30;16.65;;;14.30;99.90;;;;;;6250650;22;20460;-85
2022/10/13 11:37:50;;;;;;;26.83;16.95;;;15.30;99.90;;;;;;6276999;22;20055;-86
2022/10/13 11:40:39;;;;;;;25.42;14.30;;;14.20;99.90;;;;;;6249080;22;20382;-86
2022/10/13 11:43:32;;;;;;;25.08;14.68;;;14.20;99.90;;;;;;6234312;22;20022;-85
2022/10/13 11:46:23;;;;;;;24.00;14.30;;;14.10;99.90;;;;;;6276817;22;20022;-85
2022/10/13 11:48:54;;;;;;;24.23;15.02;;;15.00;99.90;;;;;;6278123;22;20091;-85
2022/10/13 11:51:35;;;;;;;27.85;14.48;;;13.90;99.90;;;;;;6250069;22;20019;-86
2022/10/13 11:54:31;;;;;;;27.20;15.20;;;14.60;99.90;;;;;;6276323;22;20509;-85
2022/10/13 11:56:57;;;;;;;24.98;14.57;;;13.80;99.90;;;;;;6250614;22;20023;-85
2022/10/13 11:59:39;;;;;;;29.15;15.02;;;13.80;99.90;;;;;;6228269;22;20023;-85
2022/10/13 12:02:25;;;;;;;27.90;16.27;;;13.80;99.90;;;;;;6249171;22;20452;-85
2022/10/13 12:05:34;;;;;;;28.52;15.05;;;14.20;99.90;;;;;;6250467;22;20012;-85
2022/10/13 12:08:03;;;;;;;28.23;15.57;;;13.80;99.90;;;;;;6123268;23;20022;-85
2022/10/13 12:10:50;;;;;;;29.52;17.30;;;13.80;99.90;;;;;;6124031;23;20025;-85
2022/10/13 12:13:31;;;;;;;28.70;17.65;;;13.80;99.90;;;;;;6124067;23;20018;-85
2022/10/13 12:16:05;;;;;;;27.58;16.88;;;13.80;99.90;;;;;;6098789;23;20021;-85
2022/10/13 12:18:34;;;;;;;33.42;20.77;;;13.80;99.90;;;;;;6125703;22;20038;-85
2022/10/13 12:21:18;;;;;;;26.45;16.30;;;13.80;99.90;;;;;;6249169;22;20018;-85
2022/10/13 12:23:45;;;;;;;30.35;17.20;;;14.10;99.90;;;;;;6250021;22;20452;-85
2022/10/13 12:26:17;;;;;;;32.88;19.63;;;13.80;99.90;;;;;;6249583;22;20015;-86
2022/10/13 12:28:59;;;;;;;27.27;17.15;;;13.70;99.90;;;;;;6249079;22;20016;-85
2022/10/13 12:31:47;;;;;;;31.73;18.45;;;13.60;99.90;;;;;;6249652;22;20016;-85
2022/10/13 12:34:27;;;;;;;34.90;19.98;;;13.60;99.90;;;;;;6249902;22;20015;-85
2022/10/13 12:37:12;;;;;;;47.92;32.72;;;13.60;99.90;;;;;;6248737;22;20016;-85
2022/10/13 12:39:38;;;;;;;32.08;18.35;;;13.60;99.90;;;;;;6249895;22;20018;-86
2022/10/13 12:45:54;;;;;;;32.35;18.50;;;13.50;99.90;;;;;;6277116;22;20027;-86
2022/10/13 12:48:33;;;;;;;31.70;18.48;;;13.50;99.90;;;;;;6276480;22;20340;-85
2022/10/13 12:51:28;;;;;;;40.00;19.92;;;13.40;99.90;;;;;;6248634;22;20018;-84
2022/10/13 12:53:54;;;;;;;46.25;28.45;;;13.50;99.90;;;;;;6217587;22;20027;-84
2022/10/13 12:56:31;;;;;;;38.85;21.80;;;13.40;99.90;;;;;;6275334;22;20016;-84
2022/10/13 12:58:57;;;;;;;39.22;20.33;;;13.40;99.90;;;;;;6249264;22;20043;-83
2022/10/13 13:01:33;;;;;;;32.97;18.55;;;13.50;99.90;;;;;;6248472;22;20027;-84
2022/10/13 13:04:44;;;;;;;36.58;19.65;;;13.60;99.90;;;;;;6248308;22;20512;-84
2022/10/13 13:07:28;;;;;;;36.42;20.73;;;13.60;99.90;;;;;;6275777;22;20023;-84
2022/10/13 13:10:16;;;;;;;32.67;18.73;;;13.70;99.90;;;;;;6276703;22;20392;-84
2022/10/13 13:12:42;;;;;;;36.17;19.73;;;13.60;99.90;;;;;;6249229;22;20015;-84
2022/10/13 13:15:23;;;;;;;34.63;18.83;;;13.60;99.90;;;;;;6248737;22;20068;-84
2022/10/13 13:17:52;;;;;;;30.30;17.48;;;13.50;99.90;;;;;;6248263;22;20037;-84
2022/10/13 13:20:31;;;;;;;34.08;20.88;;;13.50;99.90;;;;;;6248135;22;20467;-84
2022/10/13 13:22:57;;;;;;;32.13;18.38;;;13.50;99.90;;;;;;6249107;22;20014;-84